This is the latest recevied weather packets stored in our database for station/object kj4yre. If no packets are shown the sender has not sent any weather packets the latest 1 day(s).
| Time | Temp. | Humidity | Pressure | Rain* | Wind** | Luminosity | Snow |
|---|---|---|---|---|---|---|---|
| 1778019436 | 26.67° C | 41% | 1012.9 hPa | 0 mm | 0.89 m/s, 96° | - | - |
| 1778016436 | 27.78° C | 36% | 1012.8 hPa | 0 mm | 3.13 m/s, 232° | - | - |
| 1778014636 | 29.44° C | 32% | 1012.7 hPa | 0 mm | 3.13 m/s, 217° | - | - |
| 1778014335 | 30° C | 31% | 1012.7 hPa | 0 mm | 1.34 m/s, 188° | - | - |
| 1778013137 | 30° C | 31% | 1012.6 hPa | 0 mm | 2.68 m/s, 241° | - | - |
| 1778012836 | 30° C | 33% | 1012.7 hPa | 0 mm | 1.34 m/s, 346° | - | - |
| 1778012537 | 30° C | 32% | 1012.6 hPa | 0 mm | 4.47 m/s, 211° | - | - |
| 1778010735 | 30.56° C | 32% | 1013.1 hPa | 0 mm | 2.24 m/s, 332° | - | - |
| 1778010435 | 30° C | 31% | 1013.2 hPa | 0 mm | 2.68 m/s, 265° | - | - |
| 1778009835 | 30° C | 32% | 1013.3 hPa | 0 mm | 3.13 m/s, 252° | - | - |
| 1778008936 | 30° C | 32% | 1013.5 hPa | 0 mm | 1.34 m/s, 171° | - | - |
| 1778008336 | 30° C | 33% | 1013.8 hPa | 0 mm | 1.34 m/s, 221° | - | - |
| 1778007436 | 30° C | 33% | 1014 hPa | 0 mm | 1.34 m/s, 254° | - | - |
| 1778004435 | 29.44° C | 34% | 1014.5 hPa | 0 mm | 1.34 m/s, 218° | - | - |
| 1778002936 | 27.78° C | 36% | 1014.5 hPa | 0 mm | 3.13 m/s, 256° | - | - |
| 1778002336 | 27.78° C | 37% | 1014.5 hPa | 0 mm | 1.79 m/s, 264° | - | - |
| 1778002037 | 27.78° C | 37% | 1014.6 hPa | 0 mm | 1.79 m/s, 219° | - | - |
| 1778001136 | 28.33° C | 39% | 1014.7 hPa | 0 mm | 2.68 m/s, 249° | - | - |
| 1778000234 | 26.67° C | 42% | 1014.8 hPa | 0 mm | 1.79 m/s, 245° | - | - |
| 1777999935 | 28.33° C | 41% | 1014.9 hPa | 0 mm | 2.68 m/s, 240° | - | - |
| 1777998735 | 27.22° C | 42% | 1015.4 hPa | 0 mm | 1.34 m/s, 232° | - | - |
| 1777998135 | 26.67° C | 45% | 1015.6 hPa | 0 mm | 0.45 m/s, 109° | - | - |
| 1777994535 | 24.44° C | 50% | 1015.8 hPa | 0 mm | 2.68 m/s, 263° | - | - |
| 1777993935 | 24.44° C | 52% | 1015.8 hPa | 0 mm | 0.89 m/s, 194° | - | - |
| 1777992436 | 23.33° C | 55% | 1016 hPa | 0 mm | 1.34 m/s, 248° | - | - |
* Rain latest hour (hover to see other rain measurements)
** Current wind speed in m/s (hover to see current wind gust speed)